sensor_id;sensor_type;location;lat;lon;timestamp;pressure;altitude;pressure_sealevel;temperature;humidity
45078;BME280;60508;42.622;25.416;2024-01-10T00:01:24;97945.53;;;-3.04;39.83
45078;BME280;60508;42.622;25.416;2024-01-10T00:03:56;97933.88;;;-2.90;40.42
45078;BME280;60508;42.622;25.416;2024-01-10T00:06:43;97937.41;;;-3.01;42.19
45078;BME280;60508;42.622;25.416;2024-01-10T00:09:11;97945.03;;;-2.98;41.75
45078;BME280;60508;42.622;25.416;2024-01-10T00:11:37;97947.50;;;-2.75;40.48
45078;BME280;60508;42.622;25.416;2024-01-10T00:14:24;97946.81;;;-2.77;40.29
45078;BME280;60508;42.622;25.416;2024-01-10T00:16:51;97951.19;;;-3.08;42.57
45078;BME280;60508;42.622;25.416;2024-01-10T00:19:18;97950.34;;;-3.30;43.90
45078;BME280;60508;42.622;25.416;2024-01-10T00:21:45;97955.81;;;-3.22;43.98
45078;BME280;60508;42.622;25.416;2024-01-10T00:24:12;97963.75;;;-3.12;43.16
45078;BME280;60508;42.622;25.416;2024-01-10T00:26:39;97969.47;;;-3.07;42.88
45078;BME280;60508;42.622;25.416;2024-01-10T00:29:06;97968.06;;;-3.11;44.60
45078;BME280;60508;42.622;25.416;2024-01-10T00:31:33;97972.56;;;-3.23;43.82
45078;BME280;60508;42.622;25.416;2024-01-10T00:33:59;97980.38;;;-3.33;42.36
45078;BME280;60508;42.622;25.416;2024-01-10T00:36:46;97969.75;;;-3.10;42.19
45078;BME280;60508;42.622;25.416;2024-01-10T00:39:13;97980.78;;;-2.95;39.34
45078;BME280;60508;42.622;25.416;2024-01-10T00:41:42;97974.78;;;-2.97;37.60
45078;BME280;60508;42.622;25.416;2024-01-10T00:44:09;97971.25;;;-2.86;37.67
45078;BME280;60508;42.622;25.416;2024-01-10T00:46:36;97976.47;;;-3.17;36.16
45078;BME280;60508;42.622;25.416;2024-01-10T00:49:03;97977.03;;;-3.14;38.58
45078;BME280;60508;42.622;25.416;2024-01-10T00:51:30;97968.88;;;-3.10;38.30
45078;BME280;60508;42.622;25.416;2024-01-10T00:54:17;97973.91;;;-3.07;37.26
45078;BME280;60508;42.622;25.416;2024-01-10T00:56:44;97978.25;;;-2.97;36.26
45078;BME280;60508;42.622;25.416;2024-01-10T00:59:11;97966.63;;;-2.94;35.53
45078;BME280;60508;42.622;25.416;2024-01-10T01:01:37;97969.88;;;-3.12;33.86
45078;BME280;60508;42.622;25.416;2024-01-10T01:04:04;97966.19;;;-2.99;34.56
45078;BME280;60508;42.622;25.416;2024-01-10T01:06:51;97968.44;;;-2.95;34.53
45078;BME280;60508;42.622;25.416;2024-01-10T01:09:18;97965.81;;;-2.95;34.16
45078;BME280;60508;42.622;25.416;2024-01-10T01:12:05;97964.94;;;-3.05;34.78
45078;BME280;60508;42.622;25.416;2024-01-10T01:14:33;97957.22;;;-3.18;34.10
45078;BME280;60508;42.622;25.416;2024-01-10T01:17:00;97955.22;;;-3.25;34.81
45078;BME280;60508;42.622;25.416;2024-01-10T01:19:26;97949.44;;;-3.40;36.88
45078;BME280;60508;42.622;25.416;2024-01-10T01:21:54;97959.53;;;-3.24;38.01
45078;BME280;60508;42.622;25.416;2024-01-10T01:24:20;97960.75;;;-3.07;37.66
45078;BME280;60508;42.622;25.416;2024-01-10T01:27:07;97957.41;;;-3.09;38.66
45078;BME280;60508;42.622;25.416;2024-01-10T01:29:34;97954.03;;;-3.00;37.91
45078;BME280;60508;42.622;25.416;2024-01-10T01:32:00;97964.31;;;-3.08;37.31
45078;BME280;60508;42.622;25.416;2024-01-10T01:34:48;97964.38;;;-3.20;41.44
45078;BME280;60508;42.622;25.416;2024-01-10T01:37:14;97969.69;;;-3.31;42.72
45078;BME280;60508;42.622;25.416;2024-01-10T01:39:41;97955.59;;;-3.30;43.02
45078;BME280;60508;42.622;25.416;2024-01-10T01:42:08;97949.56;;;-3.42;42.85
45078;BME280;60508;42.622;25.416;2024-01-10T01:44:35;97942.91;;;-3.25;41.91
45078;BME280;60508;42.622;25.416;2024-01-10T01:47:02;97938.44;;;-3.34;41.51
45078;BME280;60508;42.622;25.416;2024-01-10T01:49:49;97938.22;;;-3.42;41.73
45078;BME280;60508;42.622;25.416;2024-01-10T01:52:16;97930.09;;;-3.72;41.19
45078;BME280;60508;42.622;25.416;2024-01-10T01:54:49;97932.22;;;-3.65;40.36
45078;BME280;60508;42.622;25.416;2024-01-10T01:57:26;97921.97;;;-3.69;38.41
45078;BME280;60508;42.622;25.416;2024-01-10T01:59:53;97937.56;;;-3.56;38.02
45078;BME280;60508;42.622;25.416;2024-01-10T02:02:20;97932.75;;;-3.51;38.09
45078;BME280;60508;42.622;25.416;2024-01-10T02:04:49;97932.25;;;-3.44;40.59
45078;BME280;60508;42.622;25.416;2024-01-10T02:07:16;97938.88;;;-3.29;40.11
45078;BME280;60508;42.622;25.416;2024-01-10T02:10:03;97926.25;;;-3.14;39.83
45078;BME280;60508;42.622;25.416;2024-01-10T02:12:30;97931.31;;;-3.22;37.49
45078;BME280;60508;42.622;25.416;2024-01-10T02:14:57;97923.94;;;-3.50;39.23
45078;BME280;60508;42.622;25.416;2024-01-10T02:17:44;97918.03;;;-3.63;40.15
45078;BME280;60508;42.622;25.416;2024-01-10T02:20:14;97922.81;;;-3.68;40.50
45078;BME280;60508;42.622;25.416;2024-01-10T02:22:44;97922.34;;;-3.73;41.99
45078;BME280;60508;42.622;25.416;2024-01-10T02:25:32;97913.03;;;-3.45;40.21
45078;BME280;60508;42.622;25.416;2024-01-10T02:27:59;97917.25;;;-3.54;41.12
45078;BME280;60508;42.622;25.416;2024-01-10T02:30:25;97929.09;;;-3.59;42.42
45078;BME280;60508;42.622;25.416;2024-01-10T02:32:52;97918.88;;;-3.74;42.20
45078;BME280;60508;42.622;25.416;2024-01-10T02:35:19;97927.13;;;-3.78;41.56
45078;BME280;60508;42.622;25.416;2024-01-10T02:37:46;97921.88;;;-3.78;42.57
45078;BME280;60508;42.622;25.416;2024-01-10T02:40:33;97926.03;;;-3.64;42.92
45078;BME280;60508;42.622;25.416;2024-01-10T02:42:59;97915.97;;;-3.59;44.32
45078;BME280;60508;42.622;25.416;2024-01-10T02:45:26;97909.91;;;-3.39;42.90
45078;BME280;60508;42.622;25.416;2024-01-10T02:47:53;97926.00;;;-3.32;40.63
45078;BME280;60508;42.622;25.416;2024-01-10T02:50:20;97931.38;;;-3.34;39.81
45078;BME280;60508;42.622;25.416;2024-01-10T02:53:07;97927.31;;;-3.59;39.96
45078;BME280;60508;42.622;25.416;2024-01-10T02:55:34;97925.78;;;-3.61;41.37
45078;BME280;60508;42.622;25.416;2024-01-10T02:58:21;97921.53;;;-3.74;42.07
45078;BME280;60508;42.622;25.416;2024-01-10T03:00:48;97915.47;;;-3.86;42.85
45078;BME280;60508;42.622;25.416;2024-01-10T03:03:35;97917.13;;;-3.85;42.82
45078;BME280;60508;42.622;25.416;2024-01-10T03:06:02;97924.31;;;-3.87;42.28
45078;BME280;60508;42.622;25.416;2024-01-10T03:08:29;97924.38;;;-3.77;42.94
45078;BME280;60508;42.622;25.416;2024-01-10T03:10:56;97917.91;;;-3.61;42.65
45078;BME280;60508;42.622;25.416;2024-01-10T03:13:23;97923.78;;;-3.69;42.43
45078;BME280;60508;42.622;25.416;2024-01-10T03:16:10;97924.50;;;-3.78;42.20
45078;BME280;60508;42.622;25.416;2024-01-10T03:18:36;97912.03;;;-3.65;42.10
45078;BME280;60508;42.622;25.416;2024-01-10T03:21:23;97921.31;;;-3.50;42.47
45078;BME280;60508;42.622;25.416;2024-01-10T03:23:55;97921.31;;;-3.82;43.95
45078;BME280;60508;42.622;25.416;2024-01-10T03:26:42;97912.59;;;-3.82;44.19
45078;BME280;60508;42.622;25.416;2024-01-10T03:29:09;97918.41;;;-3.68;44.04
45078;BME280;60508;42.622;25.416;2024-01-10T03:31:36;97902.22;;;-3.52;42.20
45078;BME280;60508;42.622;25.416;2024-01-10T03:34:22;97910.50;;;-3.68;41.08
45078;BME280;60508;42.622;25.416;2024-01-10T03:36:49;97913.75;;;-3.75;41.51
45078;BME280;60508;42.622;25.416;2024-01-10T03:39:16;97911.22;;;-3.65;44.34
45078;BME280;60508;42.622;25.416;2024-01-10T03:42:03;97913.66;;;-3.53;43.78
45078;BME280;60508;42.622;25.416;2024-01-10T03:44:29;97917.59;;;-3.47;43.66
45078;BME280;60508;42.622;25.416;2024-01-10T03:47:17;97906.59;;;-3.73;44.90
45078;BME280;60508;42.622;25.416;2024-01-10T03:49:43;97910.38;;;-3.66;43.79
45078;BME280;60508;42.622;25.416;2024-01-10T03:52:10;97907.75;;;-3.66;43.35
45078;BME280;60508;42.622;25.416;2024-01-10T03:54:57;97902.84;;;-3.59;43.18
45078;BME280;60508;42.622;25.416;2024-01-10T03:57:24;97917.94;;;-3.73;43.35
45078;BME280;60508;42.622;25.416;2024-01-10T03:59:51;97914.41;;;-3.62;43.90
45078;BME280;60508;42.622;25.416;2024-01-10T04:02:18;97922.28;;;-3.62;43.16
45078;BME280;60508;42.622;25.416;2024-01-10T04:05:08;97922.22;;;-3.72;42.51
45078;BME280;60508;42.622;25.416;2024-01-10T04:07:40;97928.56;;;-3.74;42.78
45078;BME280;60508;42.622;25.416;2024-01-10T04:10:30;97929.09;;;-3.59;41.97
45078;BME280;60508;42.622;25.416;2024-01-10T04:12:57;97931.53;;;-3.68;43.08
45078;BME280;60508;42.622;25.416;2024-01-10T04:15:31;97941.28;;;-3.58;42.57
45078;BME280;60508;42.622;25.416;2024-01-10T04:18:00;97929.72;;;-3.67;42.61
45078;BME280;60508;42.622;25.416;2024-01-10T04:20:27;97935.19;;;-3.59;42.73
45078;BME280;60508;42.622;25.416;2024-01-10T04:23:15;97929.44;;;-3.53;39.66
45078;BME280;60508;42.622;25.416;2024-01-10T04:25:41;97936.19;;;-3.71;41.06
45078;BME280;60508;42.622;25.416;2024-01-10T04:28:28;97931.03;;;-3.61;41.99
45078;BME280;60508;42.622;25.416;2024-01-10T04:30:55;97927.56;;;-3.62;40.57
45078;BME280;60508;42.622;25.416;2024-01-10T04:33:22;97930.09;;;-3.72;41.83
45078;BME280;60508;42.622;25.416;2024-01-10T04:36:09;97941.16;;;-3.89;42.22
45078;BME280;60508;42.622;25.416;2024-01-10T04:38:36;97942.69;;;-3.87;41.75
45078;BME280;60508;42.622;25.416;2024-01-10T04:41:24;97935.44;;;-4.06;42.52
45078;BME280;60508;42.622;25.416;2024-01-10T04:43:51;97944.41;;;-4.08;43.42
45078;BME280;60508;42.622;25.416;2024-01-10T04:46:38;97945.72;;;-4.14;44.18
45078;BME280;60508;42.622;25.416;2024-01-10T04:49:07;97943.78;;;-4.00;43.61
45078;BME280;60508;42.622;25.416;2024-01-10T04:51:34;97946.06;;;-4.07;44.67
45078;BME280;60508;42.622;25.416;2024-01-10T04:54:01;97953.69;;;-3.93;43.68
45078;BME280;60508;42.622;25.416;2024-01-10T04:56:28;97940.44;;;-3.91;43.90
45078;BME280;60508;42.622;25.416;2024-01-10T04:58:54;97950.75;;;-3.67;44.46
45078;BME280;60508;42.622;25.416;2024-01-10T05:01:41;97959.06;;;-3.94;45.62
45078;BME280;60508;42.622;25.416;2024-01-10T05:04:08;97945.56;;;-3.90;44.67
45078;BME280;60508;42.622;25.416;2024-01-10T05:06:34;97945.25;;;-4.08;45.75
45078;BME280;60508;42.622;25.416;2024-01-10T05:09:01;97937.13;;;-4.05;45.31
45078;BME280;60508;42.622;25.416;2024-01-10T05:11:28;97949.03;;;-3.89;44.45
45078;BME280;60508;42.622;25.416;2024-01-10T05:13:55;97952.88;;;-4.05;44.67
45078;BME280;60508;42.622;25.416;2024-01-10T05:16:22;97951.56;;;-4.22;44.91
45078;BME280;60508;42.622;25.416;2024-01-10T05:19:08;97950.13;;;-4.03;45.38
45078;BME280;60508;42.622;25.416;2024-01-10T05:21:35;97957.50;;;-3.86;44.15
45078;BME280;60508;42.622;25.416;2024-01-10T05:24:02;97964.53;;;-3.97;44.91
45078;BME280;60508;42.622;25.416;2024-01-10T05:26:49;97961.56;;;-3.93;44.68
45078;BME280;60508;42.622;25.416;2024-01-10T05:29:17;97958.34;;;-3.96;44.19
45078;BME280;60508;42.622;25.416;2024-01-10T05:32:06;97969.69;;;-3.96;44.87
45078;BME280;60508;42.622;25.416;2024-01-10T05:34:32;97973.88;;;-4.05;43.03
45078;BME280;60508;42.622;25.416;2024-01-10T05:36:59;97962.56;;;-4.05;43.21
45078;BME280;60508;42.622;25.416;2024-01-10T05:39:46;97983.28;;;-3.91;42.80
45078;BME280;60508;42.622;25.416;2024-01-10T05:42:13;97979.97;;;-4.04;43.36
45078;BME280;60508;42.622;25.416;2024-01-10T05:44:40;97969.59;;;-4.40;45.48
45078;BME280;60508;42.622;25.416;2024-01-10T05:47:28;97978.91;;;-4.24;43.94
45078;BME280;60508;42.622;25.416;2024-01-10T05:49:54;97970.81;;;-4.55;45.01
45078;BME280;60508;42.622;25.416;2024-01-10T05:52:41;97965.91;;;-4.37;45.31
45078;BME280;60508;42.622;25.416;2024-01-10T05:55:10;97982.84;;;-4.30;45.25
45078;BME280;60508;42.622;25.416;2024-01-10T05:57:37;97982.13;;;-4.32;46.07
45078;BME280;60508;42.622;25.416;2024-01-10T06:00:04;97982.25;;;-4.56;44.09
45078;BME280;60508;42.622;25.416;2024-01-10T06:02:56;97982.84;;;-4.41;43.24
45078;BME280;60508;42.622;25.416;2024-01-10T06:05:23;97979.03;;;-4.26;43.81
45078;BME280;60508;42.622;25.416;2024-01-10T06:07:50;97980.31;;;-4.20;44.48
45078;BME280;60508;42.622;25.416;2024-01-10T06:10:37;97986.19;;;-4.05;44.44
45078;BME280;60508;42.622;25.416;2024-01-10T06:13:03;98000.72;;;-4.01;44.07
45078;BME280;60508;42.622;25.416;2024-01-10T06:15:30;98000.38;;;-4.08;43.89
45078;BME280;60508;42.622;25.416;2024-01-10T06:17:57;98011.09;;;-3.99;41.48
45078;BME280;60508;42.622;25.416;2024-01-10T06:20:44;98013.25;;;-3.93;41.87
45078;BME280;60508;42.622;25.416;2024-01-10T06:23:11;98004.53;;;-3.82;43.06
45078;BME280;60508;42.622;25.416;2024-01-10T06:25:58;98014.25;;;-3.73;41.49
45078;BME280;60508;42.622;25.416;2024-01-10T06:28:25;98016.19;;;-3.75;42.00
45078;BME280;60508;42.622;25.416;2024-01-10T06:30:52;98019.50;;;-3.62;42.38
45078;BME280;60508;42.622;25.416;2024-01-10T06:33:18;98021.19;;;-3.61;42.81
45078;BME280;60508;42.622;25.416;2024-01-10T06:35:46;98031.13;;;-3.76;41.94
45078;BME280;60508;42.622;25.416;2024-01-10T06:38:13;98025.56;;;-3.50;42.47
45078;BME280;60508;42.622;25.416;2024-01-10T06:40:40;98025.75;;;-3.74;42.62
45078;BME280;60508;42.622;25.416;2024-01-10T06:43:07;98039.25;;;-3.79;44.70
45078;BME280;60508;42.622;25.416;2024-01-10T06:45:34;98039.72;;;-3.74;45.01
45078;BME280;60508;42.622;25.416;2024-01-10T06:48:21;98032.50;;;-3.60;42.11
45078;BME280;60508;42.622;25.416;2024-01-10T06:50:49;98046.47;;;-3.49;41.81
45078;BME280;60508;42.622;25.416;2024-01-10T06:53:15;98048.41;;;-3.62;42.35
45078;BME280;60508;42.622;25.416;2024-01-10T06:56:02;98046.00;;;-3.65;43.22
45078;BME280;60508;42.622;25.416;2024-01-10T06:58:29;98045.41;;;-3.57;42.03
45078;BME280;60508;42.622;25.416;2024-01-10T07:01:16;98047.59;;;-3.30;41.83
45078;BME280;60508;42.622;25.416;2024-01-10T07:03:43;98055.81;;;-3.23;42.19
45078;BME280;60508;42.622;25.416;2024-01-10T07:06:31;98058.00;;;-3.28;41.77
45078;BME280;60508;42.622;25.416;2024-01-10T07:08:58;98058.53;;;-3.57;43.65
45078;BME280;60508;42.622;25.416;2024-01-10T07:11:48;98057.84;;;-3.71;43.12
45078;BME280;60508;42.622;25.416;2024-01-10T07:14:16;98059.72;;;-3.50;42.78
45078;BME280;60508;42.622;25.416;2024-01-10T07:17:03;98058.28;;;-3.10;42.78
45078;BME280;60508;42.622;25.416;2024-01-10T07:19:30;98056.72;;;-3.02;42.01
45078;BME280;60508;42.622;25.416;2024-01-10T07:21:57;98056.47;;;-2.78;41.01
45078;BME280;60508;42.622;25.416;2024-01-10T07:24:44;98055.56;;;-2.67;39.67
45078;BME280;60508;42.622;25.416;2024-01-10T07:27:13;98056.16;;;-2.63;40.64
45078;BME280;60508;42.622;25.416;2024-01-10T07:29:41;98062.94;;;-2.61;40.07
45078;BME280;60508;42.622;25.416;2024-01-10T07:32:08;98073.91;;;-2.55;40.71
45078;BME280;60508;42.622;25.416;2024-01-10T07:34:57;98067.94;;;-2.36;40.09
45078;BME280;60508;42.622;25.416;2024-01-10T07:37:26;98076.53;;;-2.34;40.01
45078;BME280;60508;42.622;25.416;2024-01-10T07:40:01;98072.06;;;-2.44;39.94
45078;BME280;60508;42.622;25.416;2024-01-10T07:42:33;98080.41;;;-2.39;40.00
45078;BME280;60508;42.622;25.416;2024-01-10T07:45:00;98080.16;;;-2.57;39.55
45078;BME280;60508;42.622;25.416;2024-01-10T07:47:31;98081.31;;;-2.49;39.46
45078;BME280;60508;42.622;25.416;2024-01-10T07:49:59;98078.72;;;-2.40;39.31
45078;BME280;60508;42.622;25.416;2024-01-10T07:52:26;98075.94;;;-2.17;38.72
45078;BME280;60508;42.622;25.416;2024-01-10T07:54:53;98078.78;;;-1.99;37.89
45078;BME280;60508;42.622;25.416;2024-01-10T07:57:40;98080.81;;;-1.81;38.08
45078;BME280;60508;42.622;25.416;2024-01-10T08:00:09;98085.69;;;-1.77;37.84
45078;BME280;60508;42.622;25.416;2024-01-10T08:03:00;98088.19;;;-1.75;38.05
45078;BME280;60508;42.622;25.416;2024-01-10T08:05:27;98085.59;;;-1.66;38.15
45078;BME280;60508;42.622;25.416;2024-01-10T08:07:54;98086.66;;;-1.78;37.98
45078;BME280;60508;42.622;25.416;2024-01-10T08:10:23;98074.31;;;-1.27;37.89
45078;BME280;60508;42.622;25.416;2024-01-10T08:12:50;98079.47;;;-0.96;37.30
45078;BME280;60508;42.622;25.416;2024-01-10T08:15:39;98084.03;;;-1.27;37.17
45078;BME280;60508;42.622;25.416;2024-01-10T08:18:06;98081.41;;;-1.18;37.78
45078;BME280;60508;42.622;25.416;2024-01-10T08:20:34;98082.63;;;-1.22;38.51
45078;BME280;60508;42.622;25.416;2024-01-10T08:23:20;98090.56;;;-1.02;37.93
45078;BME280;60508;42.622;25.416;2024-01-10T08:25:47;98086.84;;;-1.00;38.10
45078;BME280;60508;42.622;25.416;2024-01-10T08:28:34;98091.38;;;-1.02;37.23
45078;BME280;60508;42.622;25.416;2024-01-10T08:31:01;98087.50;;;-1.07;38.48
45078;BME280;60508;42.622;25.416;2024-01-10T08:33:48;98086.25;;;-1.13;38.96
45078;BME280;60508;42.622;25.416;2024-01-10T08:36:15;98081.28;;;-1.16;39.71
45078;BME280;60508;42.622;25.416;2024-01-10T08:38:42;98083.31;;;-1.20;39.43
45078;BME280;60508;42.622;25.416;2024-01-10T08:41:09;98085.81;;;-1.28;39.84
45078;BME280;60508;42.622;25.416;2024-01-10T08:43:38;98083.78;;;-1.15;39.71
45078;BME280;60508;42.622;25.416;2024-01-10T08:46:25;98081.56;;;-1.00;39.61
45078;BME280;60508;42.622;25.416;2024-01-10T08:48:52;98083.78;;;-0.85;39.32
45078;BME280;60508;42.622;25.416;2024-01-10T08:51:39;98086.84;;;-0.80;38.81
45078;BME280;60508;42.622;25.416;2024-01-10T08:54:07;98080.03;;;-0.83;39.33
45078;BME280;60508;42.622;25.416;2024-01-10T08:56:54;98090.56;;;-0.93;39.04
45078;BME280;60508;42.622;25.416;2024-01-10T08:59:20;98084.13;;;-0.31;38.26
45078;BME280;60508;42.622;25.416;2024-01-10T09:02:07;98081.09;;;0.11;37.53
45078;BME280;60508;42.622;25.416;2024-01-10T09:04:34;98087.47;;;0.18;36.70
45078;BME280;60508;42.622;25.416;2024-01-10T09:07:01;98089.03;;;0.11;37.20
45078;BME280;60508;42.622;25.416;2024-01-10T09:09:28;98080.09;;;0.22;36.41
45078;BME280;60508;42.622;25.416;2024-01-10T09:11:55;98070.22;;;0.69;36.44
45078;BME280;60508;42.622;25.416;2024-01-10T09:14:23;98068.22;;;0.99;35.72
45078;BME280;60508;42.622;25.416;2024-01-10T09:17:10;98064.91;;;1.15;35.79
45078;BME280;60508;42.622;25.416;2024-01-10T09:19:37;98057.16;;;1.40;35.01
45078;BME280;60508;42.622;25.416;2024-01-10T09:22:04;98053.31;;;1.87;34.44
45078;BME280;60508;42.622;25.416;2024-01-10T09:24:51;98049.53;;;1.89;33.80
45078;BME280;60508;42.622;25.416;2024-01-10T09:27:18;98049.44;;;2.42;33.53
45078;BME280;60508;42.622;25.416;2024-01-10T09:29:45;98052.47;;;2.55;32.83
45078;BME280;60508;42.622;25.416;2024-01-10T09:32:12;98049.16;;;2.53;33.45
45078;BME280;60508;42.622;25.416;2024-01-10T09:34:59;98044.41;;;2.22;33.33
45078;BME280;60508;42.622;25.416;2024-01-10T09:37:26;98051.06;;;2.00;33.80
45078;BME280;60508;42.622;25.416;2024-01-10T09:39:53;98039.03;;;2.48;33.21
45078;BME280;60508;42.622;25.416;2024-01-10T09:42:21;98040.28;;;2.79;32.46
45078;BME280;60508;42.622;25.416;2024-01-10T09:44:52;98037.16;;;3.08;31.97
45078;BME280;60508;42.622;25.416;2024-01-10T09:47:20;98033.03;;;3.38;31.36
45078;BME280;60508;42.622;25.416;2024-01-10T09:50:07;98026.69;;;3.23;31.02
45078;BME280;60508;42.622;25.416;2024-01-10T09:52:41;98025.16;;;2.79;31.78
45078;BME280;60508;42.622;25.416;2024-01-10T09:55:08;98019.28;;;2.43;32.34
45078;BME280;60508;42.622;25.416;2024-01-10T09:57:36;98030.44;;;1.86;33.52
45078;BME280;60508;42.622;25.416;2024-01-10T10:00:04;98024.00;;;1.54;34.60
45078;BME280;60508;42.622;25.416;2024-01-10T10:02:33;98016.09;;;1.36;35.08
45078;BME280;60508;42.622;25.416;2024-01-10T10:05:04;98017.72;;;1.63;34.70
45078;BME280;60508;42.622;25.416;2024-01-10T10:07:54;98008.75;;;1.82;34.87
45078;BME280;60508;42.622;25.416;2024-01-10T10:10:21;98012.78;;;1.94;34.27
45078;BME280;60508;42.622;25.416;2024-01-10T10:13:09;98005.25;;;2.16;33.59
45078;BME280;60508;42.622;25.416;2024-01-10T10:15:38;98003.09;;;1.77;34.30
45078;BME280;60508;42.622;25.416;2024-01-10T10:18:05;98000.66;;;1.57;34.28
45078;BME280;60508;42.622;25.416;2024-01-10T10:20:31;97996.75;;;1.43;34.71
45078;BME280;60508;42.622;25.416;2024-01-10T10:23:05;97989.75;;;1.34;35.16
45078;BME280;60508;42.622;25.416;2024-01-10T10:25:53;97991.94;;;1.21;35.73
45078;BME280;60508;42.622;25.416;2024-01-10T10:28:21;97983.81;;;1.40;36.04
45078;BME280;60508;42.622;25.416;2024-01-10T10:31:08;97997.22;;;1.65;34.91
45078;BME280;60508;42.622;25.416;2024-01-10T10:33:36;97984.44;;;1.60;34.54
45078;BME280;60508;42.622;25.416;2024-01-10T10:36:04;97985.28;;;1.61;35.00
45078;BME280;60508;42.622;25.416;2024-01-10T10:38:31;97986.00;;;1.71;34.67
45078;BME280;60508;42.622;25.416;2024-01-10T10:40:59;97983.44;;;1.88;34.76
45078;BME280;60508;42.622;25.416;2024-01-10T10:43:46;97975.69;;;1.94;34.67
45078;BME280;60508;42.622;25.416;2024-01-10T10:46:16;97976.63;;;1.85;35.18
45078;BME280;60508;42.622;25.416;2024-01-10T10:49:06;97980.63;;;1.89;34.83
45078;BME280;60508;42.622;25.416;2024-01-10T10:51:59;97970.25;;;2.04;34.77
45078;BME280;60508;42.622;25.416;2024-01-10T10:54:28;97970.66;;;2.26;34.12
45078;BME280;60508;42.622;25.416;2024-01-10T10:57:17;97967.59;;;2.63;33.83
45078;BME280;60508;42.622;25.416;2024-01-10T10:59:48;97960.00;;;2.93;33.43
45078;BME280;60508;42.622;25.416;2024-01-10T11:02:20;97961.81;;;3.01;33.33
45078;BME280;60508;42.622;25.416;2024-01-10T11:04:51;97960.66;;;3.03;33.50
45078;BME280;60508;42.622;25.416;2024-01-10T11:07:42;97949.03;;;3.13;32.98
45078;BME280;60508;42.622;25.416;2024-01-10T11:10:27;97953.03;;;3.17;33.15
45078;BME280;60508;42.622;25.416;2024-01-10T11:16:28;97948.22;;;2.96;33.19
45078;BME280;60508;42.622;25.416;2024-01-10T11:25:14;97943.41;;;2.83;33.08
45078;BME280;60508;42.622;25.416;2024-01-10T11:27:44;97939.56;;;2.69;32.93
45078;BME280;60508;42.622;25.416;2024-01-10T11:30:11;97925.31;;;2.62;33.19
45078;BME280;60508;42.622;25.416;2024-01-10T11:32:38;97926.13;;;2.62;33.46
45078;BME280;60508;42.622;25.416;2024-01-10T11:35:16;97919.47;;;2.42;33.66
45078;BME280;60508;42.622;25.416;2024-01-10T11:38:05;97915.34;;;2.55;33.53
45078;BME280;60508;42.622;25.416;2024-01-10T11:40:47;97924.28;;;2.54;33.85
45078;BME280;60508;42.622;25.416;2024-01-10T11:43:14;97910.22;;;2.70;33.71
45078;BME280;60508;42.622;25.416;2024-01-10T11:45:52;97916.88;;;2.74;34.10
45078;BME280;60508;42.622;25.416;2024-01-10T11:48:28;97913.53;;;2.72;34.18
45078;BME280;60508;42.622;25.416;2024-01-10T11:50:57;97915.50;;;2.87;33.83
45078;BME280;60508;42.622;25.416;2024-01-10T11:53:44;97909.72;;;2.91;33.74
45078;BME280;60508;42.622;25.416;2024-01-10T11:56:17;97912.19;;;2.93;34.38
45078;BME280;60508;42.622;25.416;2024-01-10T11:59:09;97909.38;;;3.03;34.64
45078;BME280;60508;42.622;25.416;2024-01-10T12:01:38;97908.53;;;3.10;34.31
45078;BME280;60508;42.622;25.416;2024-01-10T12:04:26;97912.00;;;3.11;33.48
45078;BME280;60508;42.622;25.416;2024-01-10T12:06:57;97909.03;;;3.14;34.02
45078;BME280;60508;42.622;25.416;2024-01-10T12:09:24;97904.56;;;2.90;34.04
45078;BME280;60508;42.622;25.416;2024-01-10T12:11:51;97906.41;;;2.98;34.93
45078;BME280;60508;42.622;25.416;2024-01-10T12:14:38;97903.06;;;2.46;36.46
45078;BME280;60508;42.622;25.416;2024-01-10T12:17:06;97890.44;;;3.06;35.59
45078;BME280;60508;42.622;25.416;2024-01-10T12:19:36;97892.78;;;3.01;35.75
45078;BME280;60508;42.622;25.416;2024-01-10T12:22:04;97885.63;;;3.01;35.88
45078;BME280;60508;42.622;25.416;2024-01-10T12:24:42;97883.44;;;3.21;35.53
45078;BME280;60508;42.622;25.416;2024-01-10T12:27:11;97887.72;;;3.39;35.54
45078;BME280;60508;42.622;25.416;2024-01-10T12:29:38;97886.69;;;3.48;34.82
45078;BME280;60508;42.622;25.416;2024-01-10T12:32:07;97889.13;;;3.18;35.02
45078;BME280;60508;42.622;25.416;2024-01-10T12:35:03;97880.41;;;3.33;35.04
45078;BME280;60508;42.622;25.416;2024-01-10T12:37:31;97881.94;;;3.35;35.32
45078;BME280;60508;42.622;25.416;2024-01-10T12:40:19;97886.13;;;4.09;34.12
45078;BME280;60508;42.622;25.416;2024-01-10T12:42:46;97874.59;;;3.85;34.31
45078;BME280;60508;42.622;25.416;2024-01-10T12:45:22;97885.56;;;4.13;34.06
45078;BME280;60508;42.622;25.416;2024-01-10T12:47:50;97880.22;;;3.90;34.37
45078;BME280;60508;42.622;25.416;2024-01-10T12:50:20;97889.53;;;3.94;33.82
45078;BME280;60508;42.622;25.416;2024-01-10T12:52:47;97876.78;;;4.13;33.92
45078;BME280;60508;42.622;25.416;2024-01-10T12:55:15;97887.00;;;4.01;32.44
45078;BME280;60508;42.622;25.416;2024-01-10T12:57:42;97886.63;;;3.17;33.18
45078;BME280;60508;42.622;25.416;2024-01-10T13:00:10;97882.34;;;2.83;33.93
45078;BME280;60508;42.622;25.416;2024-01-10T13:02:37;97883.81;;;3.18;34.70
45078;BME280;60508;42.622;25.416;2024-01-10T13:05:24;97884.84;;;2.84;33.31
45078;BME280;60508;42.622;25.416;2024-01-10T13:08:11;97884.50;;;2.96;34.40
45078;BME280;60508;42.622;25.416;2024-01-10T13:10:39;97878.00;;;2.98;33.94
45078;BME280;60508;42.622;25.416;2024-01-10T13:13:06;97885.78;;;3.08;33.65
45078;BME280;60508;42.622;25.416;2024-01-10T13:15:33;97886.81;;;2.82;34.00
45078;BME280;60508;42.622;25.416;2024-01-10T13:18:20;97887.28;;;3.10;34.39
45078;BME280;60508;42.622;25.416;2024-01-10T13:20:47;97901.03;;;3.31;33.76
45078;BME280;60508;42.622;25.416;2024-01-10T13:23:14;97890.13;;;3.09;34.29
45078;BME280;60508;42.622;25.416;2024-01-10T13:26:03;97892.09;;;2.99;34.21
45078;BME280;60508;42.622;25.416;2024-01-10T13:28:29;97889.13;;;2.93;34.23
45078;BME280;60508;42.622;25.416;2024-01-10T13:30:57;97890.16;;;2.84;34.25
45078;BME280;60508;42.622;25.416;2024-01-10T13:33:23;97889.97;;;2.61;35.09